createdAt,value
2018-02-12T08:15:29.639Z,2.60
2018-02-12T08:20:32.764Z,3.00
2018-02-12T08:25:36.121Z,3.10
2018-02-12T08:30:39.298Z,3.50
2018-02-12T08:35:42.426Z,3.60
2018-02-12T08:40:45.529Z,3.70
2018-02-12T08:45:53.535Z,4.10
2018-02-12T08:50:56.391Z,4.30
2018-02-12T08:56:00.269Z,4.20
2018-02-12T09:01:03.057Z,4.20
2018-02-12T09:06:05.850Z,4.20
2018-02-12T09:11:08.864Z,4.30
2018-02-12T09:16:11.658Z,4.10
2018-02-12T09:21:14.519Z,4.20
2018-02-12T09:26:17.359Z,4.20
2018-02-12T09:31:21.491Z,4.20
2018-02-12T09:36:25.875Z,4.70
2018-02-12T09:41:28.786Z,4.60
2018-02-12T09:46:31.686Z,5.10
2018-02-12T09:51:35.533Z,6.10
2018-02-12T09:56:48.099Z,6.70
2018-02-12T10:01:52.316Z,6.90
2018-02-12T10:06:55.492Z,6.90
2018-02-12T10:11:58.427Z,6.40
2018-02-12T10:17:01.300Z,6.20
2018-02-12T10:22:04.197Z,5.80
2018-02-12T10:27:07.022Z,5.70
2018-02-12T10:32:10.130Z,5.50
2018-02-12T10:42:26.634Z,5.60
2018-02-12T10:47:29.477Z,5.90
2018-02-12T10:52:35.810Z,5.70
2018-02-12T10:57:42.982Z,5.50
2018-02-12T11:02:46.616Z,5.40
2018-02-12T11:07:50.369Z,6.40
2018-02-12T11:12:54.121Z,6.40
2018-02-12T11:18:05.508Z,7.10
2018-02-12T11:23:08.361Z,7.50
2018-02-12T11:28:12.829Z,7.80
2018-02-12T11:33:15.692Z,8.60
2018-02-12T11:38:18.509Z,9.20
2018-02-12T11:43:21.409Z,9.50
2018-02-12T11:48:26.083Z,10.10
2018-02-12T11:53:28.899Z,10.00
2018-02-12T11:58:33.523Z,10.00
2018-02-12T12:03:37.097Z,9.60
2018-02-12T12:08:40.664Z,10.30
2018-02-12T12:13:43.710Z,10.20
2018-02-12T12:18:46.761Z,9.60
2018-02-12T12:23:50.363Z,8.60
2018-02-12T12:28:53.270Z,8.50
2018-02-12T12:33:56.131Z,8.20
2018-02-12T12:38:59.021Z,8.00
2018-02-12T12:44:02.469Z,8.10
2018-02-12T12:49:05.286Z,8.00
2018-02-12T12:54:08.782Z,7.80
2018-02-12T12:59:12.621Z,7.80
2018-02-12T13:04:16.522Z,7.60
2018-02-12T13:09:24.959Z,7.20
2018-02-12T13:14:55.482Z,7.10
2018-02-12T13:20:17.486Z,7.30
2018-02-12T13:25:28.107Z,7.70
2018-02-12T13:30:30.931Z,7.80
2018-02-12T13:35:34.808Z,7.80
2018-02-12T13:40:38.307Z,7.60
2018-02-12T13:45:41.385Z,7.70
2018-02-12T13:50:44.253Z,7.50
2018-02-12T13:55:48.117Z,7.30
2018-02-12T14:00:51.057Z,7.30
2018-02-12T14:05:54.429Z,7.20
2018-02-12T14:10:59.979Z,6.90
2018-02-12T14:16:05.825Z,7.10
2018-02-12T14:21:12.009Z,7.00
2018-02-12T14:26:15.762Z,7.90
2018-02-12T14:31:19.735Z,8.60
2018-02-12T14:36:23.735Z,8.60
2018-02-12T14:41:27.162Z,9.00
2018-02-12T14:46:29.963Z,9.50
2018-02-12T14:51:32.942Z,9.10
2018-02-12T14:56:35.835Z,8.80
2018-02-12T15:01:38.892Z,9.00
2018-02-12T15:06:42.114Z,9.20
2018-02-12T15:11:49.478Z,8.30
2018-02-12T15:16:52.325Z,8.30
2018-02-12T15:21:55.415Z,7.70
2018-02-12T15:26:59.146Z,7.10
2018-02-12T15:32:02.878Z,6.80
2018-02-12T15:37:05.788Z,6.70
2018-02-12T15:42:08.828Z,6.50
2018-02-12T15:47:11.795Z,6.30
2018-02-12T15:52:15.507Z,6.10
2018-02-12T15:57:19.475Z,5.90
2018-02-12T16:02:22.470Z,5.70
2018-02-12T16:07:25.448Z,5.50
2018-02-12T16:12:28.287Z,5.30
2018-02-12T16:17:31.127Z,5.20
2018-02-12T16:22:34.548Z,5.20
2018-02-12T16:27:37.377Z,4.90
2018-02-12T16:32:40.237Z,4.80
2018-02-12T16:37:45.117Z,4.40
2018-02-12T16:42:48.005Z,4.40
2018-02-12T16:47:51.703Z,4.30
2018-02-12T16:52:55.095Z,4.20
2018-02-12T16:57:58.766Z,3.70
2018-02-12T17:03:01.664Z,3.70
2018-02-12T17:08:04.526Z,3.60
2018-02-12T17:13:07.477Z,3.40
2018-02-12T17:18:10.253Z,3.20
2018-02-12T17:23:13.147Z,3.00
2018-02-12T17:28:17.387Z,2.70
2018-02-12T17:33:21.120Z,2.40
2018-02-12T17:38:24.234Z,2.40
2018-02-12T17:43:28.104Z,2.30
2018-02-12T17:48:30.965Z,2.10
2018-02-12T17:53:36.918Z,2.00
2018-02-12T17:58:40.047Z,1.80
2018-02-12T18:03:44.042Z,1.70
2018-02-12T18:14:06.008Z,1.60
2018-02-12T18:19:11.381Z,1.50
2018-02-12T18:24:21.367Z,1.40
2018-02-12T18:29:35.722Z,1.30
2018-02-12T18:34:48.445Z,1.20
2018-02-12T18:39:53.101Z,1.10
2018-02-12T18:44:57.826Z,1.00
2018-02-12T18:50:13.343Z,1.00
2018-02-12T18:55:20.848Z,1.00
2018-02-12T19:05:58.951Z,0.70
2018-02-12T19:11:08.820Z,0.80
2018-02-12T19:16:36.655Z,0.70
2018-02-12T19:21:54.867Z,0.50
2018-02-12T19:27:11.804Z,0.50
2018-02-12T19:32:17.269Z,0.60
2018-02-12T19:37:30.782Z,0.70
2018-02-12T19:42:38.358Z,0.60
2018-02-12T19:47:46.076Z,0.60
2018-02-12T19:52:51.302Z,0.60
2018-02-12T19:58:01.403Z,0.50
2018-02-12T20:03:27.484Z,0.50
2018-02-12T20:14:00.263Z,0.60
2018-02-12T20:19:11.137Z,0.50
2018-02-12T20:24:31.168Z,0.60
2018-02-12T20:34:56.844Z,0.60
2018-02-12T20:40:01.227Z,0.50
2018-02-12T23:49:37.099Z,0.20
2018-02-12T23:54:58.369Z,-0.70
